sensor_id;sensor_type;location;lat;lon;timestamp;pressure;altitude;pressure_sealevel;temperature;humidity
39363;BME280;25088;43.238;23.110;2023-07-08T00:00:20;96677.66;;;21.86;64.65
39363;BME280;25088;43.238;23.110;2023-07-08T00:02:46;96672.97;;;22.13;64.85
39363;BME280;25088;43.238;23.110;2023-07-08T00:05:14;96680.28;;;22.00;67.58
39363;BME280;25088;43.238;23.110;2023-07-08T00:07:40;96653.63;;;21.99;65.32
39363;BME280;25088;43.238;23.110;2023-07-08T00:10:16;96665.22;;;22.01;65.94
39363;BME280;25088;43.238;23.110;2023-07-08T00:12:44;96660.50;;;22.02;66.58
39363;BME280;25088;43.238;23.110;2023-07-08T00:15:10;96658.84;;;21.92;66.82
39363;BME280;25088;43.238;23.110;2023-07-08T00:17:36;96640.16;;;21.58;68.01
39363;BME280;25088;43.238;23.110;2023-07-08T00:20:11;96649.19;;;21.63;68.07
39363;BME280;25088;43.238;23.110;2023-07-08T00:22:37;96639.03;;;21.67;68.34
39363;BME280;25088;43.238;23.110;2023-07-08T00:25:04;96645.56;;;21.63;68.49
39363;BME280;25088;43.238;23.110;2023-07-08T00:27:29;96651.13;;;21.63;68.80
39363;BME280;25088;43.238;23.110;2023-07-08T00:29:55;96637.22;;;21.63;68.22
39363;BME280;25088;43.238;23.110;2023-07-08T00:32:20;96636.41;;;21.62;67.58
39363;BME280;25088;43.238;23.110;2023-07-08T00:34:46;96640.38;;;21.79;66.65
39363;BME280;25088;43.238;23.110;2023-07-08T00:37:12;96613.72;;;21.69;65.15
39363;BME280;25088;43.238;23.110;2023-07-08T00:39:38;96636.94;;;21.82;66.92
39363;BME280;25088;43.238;23.110;2023-07-08T00:42:13;96638.06;;;21.81;66.35
39363;BME280;25088;43.238;23.110;2023-07-08T00:44:41;96624.03;;;21.94;67.14
39363;BME280;25088;43.238;23.110;2023-07-08T00:47:09;96629.38;;;21.56;66.46
39363;BME280;25088;43.238;23.110;2023-07-08T00:49:56;96624.50;;;21.71;66.86
39363;BME280;25088;43.238;23.110;2023-07-08T00:52:28;96646.88;;;21.65;67.11
39363;BME280;25088;43.238;23.110;2023-07-08T00:54:58;96648.34;;;21.72;67.24
39363;BME280;25088;43.238;23.110;2023-07-08T00:57:27;96643.97;;;21.88;64.10
39363;BME280;25088;43.238;23.110;2023-07-08T00:59:59;96645.28;;;22.08;64.23
39363;BME280;25088;43.238;23.110;2023-07-08T01:02:27;96647.44;;;22.19;63.64
39363;BME280;25088;43.238;23.110;2023-07-08T01:05:08;96646.28;;;22.03;65.53
39363;BME280;25088;43.238;23.110;2023-07-08T01:07:37;96650.22;;;22.11;64.28
39363;BME280;25088;43.238;23.110;2023-07-08T01:10:07;96657.72;;;22.10;65.00
39363;BME280;25088;43.238;23.110;2023-07-08T01:12:42;96645.16;;;22.13;63.11
39363;BME280;25088;43.238;23.110;2023-07-08T01:15:08;96634.50;;;22.06;65.57
39363;BME280;25088;43.238;23.110;2023-07-08T01:17:35;96643.81;;;22.36;63.66
39363;BME280;25088;43.238;23.110;2023-07-08T01:20:03;96620.63;;;22.15;63.77
39363;BME280;25088;43.238;23.110;2023-07-08T01:22:37;96641.38;;;22.35;64.20
39363;BME280;25088;43.238;23.110;2023-07-08T01:25:04;96642.03;;;22.40;62.50
39363;BME280;25088;43.238;23.110;2023-07-08T01:27:35;96639.06;;;22.45;62.74
39363;BME280;25088;43.238;23.110;2023-07-08T01:30:04;96634.31;;;22.46;61.51
39363;BME280;25088;43.238;23.110;2023-07-08T01:32:31;96638.38;;;22.57;62.79
39363;BME280;25088;43.238;23.110;2023-07-08T01:35:00;96645.66;;;22.15;65.34
39363;BME280;25088;43.238;23.110;2023-07-08T01:37:38;96634.53;;;22.24;65.33
39363;BME280;25088;43.238;23.110;2023-07-08T01:40:32;96637.13;;;22.11;65.53
39363;BME280;25088;43.238;23.110;2023-07-08T01:42:58;96636.44;;;22.06;66.46
39363;BME280;25088;43.238;23.110;2023-07-08T01:45:27;96642.81;;;22.06;66.15
39363;BME280;25088;43.238;23.110;2023-07-08T01:47:59;96624.53;;;22.05;66.48
39363;BME280;25088;43.238;23.110;2023-07-08T01:50:27;96627.97;;;21.93;65.93
39363;BME280;25088;43.238;23.110;2023-07-08T01:52:54;96630.06;;;21.88;63.04
39363;BME280;25088;43.238;23.110;2023-07-08T01:55:23;96626.47;;;21.96;64.17
39363;BME280;25088;43.238;23.110;2023-07-08T01:57:51;96637.06;;;21.68;67.32
39363;BME280;25088;43.238;23.110;2023-07-08T02:00:17;96630.38;;;21.78;65.04
39363;BME280;25088;43.238;23.110;2023-07-08T02:02:42;96633.03;;;22.00;64.51
39363;BME280;25088;43.238;23.110;2023-07-08T02:05:08;96623.53;;;21.84;65.27
39363;BME280;25088;43.238;23.110;2023-07-08T02:07:33;96630.22;;;21.74;65.28
39363;BME280;25088;43.238;23.110;2023-07-08T02:09:59;96629.41;;;21.65;66.01
39363;BME280;25088;43.238;23.110;2023-07-08T02:12:24;96629.41;;;21.74;65.46
39363;BME280;25088;43.238;23.110;2023-07-08T02:14:49;96635.94;;;21.78;65.89
39363;BME280;25088;43.238;23.110;2023-07-08T02:17:15;96621.56;;;21.58;66.21
39363;BME280;25088;43.238;23.110;2023-07-08T02:19:42;96633.91;;;21.35;66.40
39363;BME280;25088;43.238;23.110;2023-07-08T02:22:08;96624.19;;;21.15;67.72
39363;BME280;25088;43.238;23.110;2023-07-08T02:24:34;96629.03;;;21.40;66.24
39363;BME280;25088;43.238;23.110;2023-07-08T02:26:59;96648.06;;;21.25;67.39
39363;BME280;25088;43.238;23.110;2023-07-08T02:29:25;96631.00;;;21.49;66.52
39363;BME280;25088;43.238;23.110;2023-07-08T02:31:51;96647.41;;;21.28;69.23
39363;BME280;25088;43.238;23.110;2023-07-08T02:34:17;96650.31;;;21.14;67.74
39363;BME280;25088;43.238;23.110;2023-07-08T02:36:42;96651.75;;;21.11;67.81
39363;BME280;25088;43.238;23.110;2023-07-08T02:39:09;96662.00;;;21.02;67.73
39363;BME280;25088;43.238;23.110;2023-07-08T02:41:35;96652.38;;;21.08;67.07
39363;BME280;25088;43.238;23.110;2023-07-08T02:44:00;96648.81;;;21.08;66.23
39363;BME280;25088;43.238;23.110;2023-07-08T02:46:26;96663.34;;;21.05;65.55
39363;BME280;25088;43.238;23.110;2023-07-08T02:48:51;96628.94;;;20.83;66.07
39363;BME280;25088;43.238;23.110;2023-07-08T02:51:17;96659.91;;;21.08;66.59
39363;BME280;25088;43.238;23.110;2023-07-08T02:53:50;96635.88;;;21.03;66.53
39363;BME280;25088;43.238;23.110;2023-07-08T02:56:15;96653.44;;;21.21;65.56
39363;BME280;25088;43.238;23.110;2023-07-08T02:58:41;96664.22;;;21.23;65.20
39363;BME280;25088;43.238;23.110;2023-07-08T03:01:07;96653.09;;;21.23;64.96
39363;BME280;25088;43.238;23.110;2023-07-08T03:03:33;96659.31;;;21.20;65.84
39363;BME280;25088;43.238;23.110;2023-07-08T03:06:01;96657.84;;;21.13;65.80
39363;BME280;25088;43.238;23.110;2023-07-08T03:08:28;96652.72;;;21.07;66.06
39363;BME280;25088;43.238;23.110;2023-07-08T03:10:59;96646.72;;;21.13;64.68
39363;BME280;25088;43.238;23.110;2023-07-08T03:13:25;96633.84;;;20.86;64.81
39363;BME280;25088;43.238;23.110;2023-07-08T03:15:51;96649.47;;;21.05;65.68
39363;BME280;25088;43.238;23.110;2023-07-08T03:18:17;96648.97;;;21.11;64.99
39363;BME280;25088;43.238;23.110;2023-07-08T03:20:43;96637.41;;;21.09;65.15
39363;BME280;25088;43.238;23.110;2023-07-08T03:23:11;96655.22;;;21.17;64.93
39363;BME280;25088;43.238;23.110;2023-07-08T03:25:36;96647.91;;;21.30;64.68
39363;BME280;25088;43.238;23.110;2023-07-08T03:28:03;96659.66;;;21.27;65.20
39363;BME280;25088;43.238;23.110;2023-07-08T03:30:31;96661.34;;;21.36;64.45
39363;BME280;25088;43.238;23.110;2023-07-08T03:32:57;96640.03;;;21.23;64.15
39363;BME280;25088;43.238;23.110;2023-07-08T03:35:22;96664.78;;;21.33;62.98
39363;BME280;25088;43.238;23.110;2023-07-08T03:37:48;96664.56;;;21.78;62.52
39363;BME280;25088;43.238;23.110;2023-07-08T03:40:13;96662.44;;;22.01;60.41
39363;BME280;25088;43.238;23.110;2023-07-08T03:42:39;96648.19;;;21.68;61.89
39363;BME280;25088;43.238;23.110;2023-07-08T03:45:05;96676.72;;;21.34;63.97
39363;BME280;25088;43.238;23.110;2023-07-08T03:47:30;96673.78;;;21.39;63.38
39363;BME280;25088;43.238;23.110;2023-07-08T03:49:56;96680.47;;;21.38;63.09
39363;BME280;25088;43.238;23.110;2023-07-08T03:52:21;96683.09;;;21.43;62.34
39363;BME280;25088;43.238;23.110;2023-07-08T03:54:47;96664.56;;;21.30;63.40
39363;BME280;25088;43.238;23.110;2023-07-08T03:57:12;96674.63;;;21.57;63.07
39363;BME280;25088;43.238;23.110;2023-07-08T03:59:38;96681.38;;;21.64;62.91
39363;BME280;25088;43.238;23.110;2023-07-08T04:02:03;96676.50;;;21.79;63.33
39363;BME280;25088;43.238;23.110;2023-07-08T04:04:29;96676.66;;;21.91;62.44
39363;BME280;25088;43.238;23.110;2023-07-08T04:06:54;96680.59;;;22.07;62.58
39363;BME280;25088;43.238;23.110;2023-07-08T04:09:20;96680.47;;;22.04;61.97
39363;BME280;25088;43.238;23.110;2023-07-08T04:11:45;96680.75;;;22.02;60.75
39363;BME280;25088;43.238;23.110;2023-07-08T04:14:11;96684.34;;;22.03;61.83
39363;BME280;25088;43.238;23.110;2023-07-08T04:16:57;96684.91;;;22.13;62.18
39363;BME280;25088;43.238;23.110;2023-07-08T04:19:24;96680.31;;;22.26;60.30
39363;BME280;25088;43.238;23.110;2023-07-08T04:21:50;96681.97;;;22.53;59.50
39363;BME280;25088;43.238;23.110;2023-07-08T04:24:16;96665.41;;;22.57;60.72
39363;BME280;25088;43.238;23.110;2023-07-08T04:26:43;96681.75;;;22.76;60.36
39363;BME280;25088;43.238;23.110;2023-07-08T04:29:12;96683.66;;;23.10;58.80
39363;BME280;25088;43.238;23.110;2023-07-08T04:31:38;96678.66;;;23.33;57.46
39363;BME280;25088;43.238;23.110;2023-07-08T04:34:03;96672.50;;;23.48;53.29
39363;BME280;25088;43.238;23.110;2023-07-08T04:36:29;96678.81;;;23.66;57.26
39363;BME280;25088;43.238;23.110;2023-07-08T04:38:55;96680.91;;;23.78;57.59
39363;BME280;25088;43.238;23.110;2023-07-08T04:41:23;96661.59;;;23.93;54.92
39363;BME280;25088;43.238;23.110;2023-07-08T04:43:51;96669.03;;;24.10;55.24
39363;BME280;25088;43.238;23.110;2023-07-08T04:46:31;96673.91;;;24.34;53.62
39363;BME280;25088;43.238;23.110;2023-07-08T04:48:59;96671.31;;;24.38;54.03
39363;BME280;25088;43.238;23.110;2023-07-08T04:51:25;96653.28;;;24.27;53.70
39363;BME280;25088;43.238;23.110;2023-07-08T04:53:51;96668.41;;;24.46;53.59
39363;BME280;25088;43.238;23.110;2023-07-08T04:56:16;96671.34;;;24.83;51.10
39363;BME280;25088;43.238;23.110;2023-07-08T04:58:42;96673.44;;;24.86;52.57
39363;BME280;25088;43.238;23.110;2023-07-08T05:01:07;96675.63;;;25.14;51.13
39363;BME280;25088;43.238;23.110;2023-07-08T05:03:33;96670.53;;;25.40;49.71
39363;BME280;25088;43.238;23.110;2023-07-08T05:05:58;96665.66;;;25.62;52.07
39363;BME280;25088;43.238;23.110;2023-07-08T05:08:23;96672.91;;;25.75;47.82
39363;BME280;25088;43.238;23.110;2023-07-08T05:10:49;96659.94;;;25.95;49.71
39363;BME280;25088;43.238;23.110;2023-07-08T05:13:14;96676.03;;;25.98;51.41
39363;BME280;25088;43.238;23.110;2023-07-08T05:15:40;96665.66;;;26.11;50.46
39363;BME280;25088;43.238;23.110;2023-07-08T05:18:05;96662.31;;;26.33;51.52
39363;BME280;25088;43.238;23.110;2023-07-08T05:20:31;96673.13;;;26.35;47.66
39363;BME280;25088;43.238;23.110;2023-07-08T05:22:58;96648.56;;;26.28;45.63
39363;BME280;25088;43.238;23.110;2023-07-08T05:25:23;96672.41;;;26.50;44.87
39363;BME280;25088;43.238;23.110;2023-07-08T05:27:49;96668.97;;;26.69;45.57
39363;BME280;25088;43.238;23.110;2023-07-08T05:30:17;96677.72;;;26.67;44.32
39363;BME280;25088;43.238;23.110;2023-07-08T05:32:43;96686.88;;;26.80;44.91
39363;BME280;25088;43.238;23.110;2023-07-08T05:35:09;96678.84;;;26.78;44.01
39363;BME280;25088;43.238;23.110;2023-07-08T05:37:35;96672.22;;;27.15;43.10
39363;BME280;25088;43.238;23.110;2023-07-08T05:40:00;96679.28;;;27.24;43.92
39363;BME280;25088;43.238;23.110;2023-07-08T05:42:29;96674.69;;;27.48;44.87
39363;BME280;25088;43.238;23.110;2023-07-08T05:44:55;96680.84;;;27.69;44.34
39363;BME280;25088;43.238;23.110;2023-07-08T05:47:22;96684.13;;;27.71;44.42
39363;BME280;25088;43.238;23.110;2023-07-08T05:49:47;96696.47;;;28.02;43.60
39363;BME280;25088;43.238;23.110;2023-07-08T05:52:13;96693.41;;;28.07;43.35
39363;BME280;25088;43.238;23.110;2023-07-08T05:54:40;96691.69;;;28.02;42.21
39363;BME280;25088;43.238;23.110;2023-07-08T05:57:08;96694.50;;;28.02;41.75
39363;BME280;25088;43.238;23.110;2023-07-08T05:59:35;96688.16;;;27.11;43.20
39363;BME280;25088;43.238;23.110;2023-07-08T06:02:02;96697.88;;;27.01;43.69
39363;BME280;25088;43.238;23.110;2023-07-08T06:04:28;96696.94;;;27.25;43.43
39363;BME280;25088;43.238;23.110;2023-07-08T06:06:53;96697.13;;;27.48;42.80
39363;BME280;25088;43.238;23.110;2023-07-08T06:09:19;96699.50;;;27.62;42.68
39363;BME280;25088;43.238;23.110;2023-07-08T06:11:44;96697.41;;;27.58;42.60
39363;BME280;25088;43.238;23.110;2023-07-08T06:14:10;96700.66;;;27.45;43.98
39363;BME280;25088;43.238;23.110;2023-07-08T06:16:35;96696.88;;;27.37;43.65
39363;BME280;25088;43.238;23.110;2023-07-08T06:19:01;96708.28;;;27.76;45.00
39363;BME280;25088;43.238;23.110;2023-07-08T06:21:26;96721.81;;;28.21;42.84
39363;BME280;25088;43.238;23.110;2023-07-08T06:23:52;96713.63;;;28.32;42.77
39363;BME280;25088;43.238;23.110;2023-07-08T06:26:17;96717.88;;;28.42;42.05
39363;BME280;25088;43.238;23.110;2023-07-08T06:28:43;96718.03;;;28.49;41.86
39363;BME280;25088;43.238;23.110;2023-07-08T06:31:08;96719.38;;;28.55;42.19
39363;BME280;25088;43.238;23.110;2023-07-08T06:33:33;96720.41;;;28.47;41.44
39363;BME280;25088;43.238;23.110;2023-07-08T06:35:59;96704.75;;;28.65;41.88
39363;BME280;25088;43.238;23.110;2023-07-08T06:38:24;96698.84;;;28.70;42.71
39363;BME280;25088;43.238;23.110;2023-07-08T06:40:50;96700.59;;;28.98;42.89
39363;BME280;25088;43.238;23.110;2023-07-08T06:43:15;96712.88;;;29.09;42.61
39363;BME280;25088;43.238;23.110;2023-07-08T06:45:41;96712.63;;;28.79;42.25
39363;BME280;25088;43.238;23.110;2023-07-08T06:48:06;96727.38;;;27.86;43.01
39363;BME280;25088;43.238;23.110;2023-07-08T06:50:32;96731.22;;;28.13;43.99
39363;BME280;25088;43.238;23.110;2023-07-08T06:52:57;96718.56;;;28.54;44.06
39363;BME280;25088;43.238;23.110;2023-07-08T06:55:23;96724.41;;;28.65;43.50
39363;BME280;25088;43.238;23.110;2023-07-08T06:57:48;96730.75;;;28.81;43.63
39363;BME280;25088;43.238;23.110;2023-07-08T07:00:14;96734.13;;;29.06;43.21
39363;BME280;25088;43.238;23.110;2023-07-08T07:02:40;96728.28;;;29.38;41.92
39363;BME280;25088;43.238;23.110;2023-07-08T07:05:05;96733.47;;;29.36;41.28
39363;BME280;25088;43.238;23.110;2023-07-08T07:07:31;96732.31;;;29.83;41.44
39363;BME280;25088;43.238;23.110;2023-07-08T07:09:56;96728.59;;;30.02;41.96
39363;BME280;25088;43.238;23.110;2023-07-08T07:12:24;96731.91;;;30.07;41.06
39363;BME280;25088;43.238;23.110;2023-07-08T07:14:49;96724.63;;;29.57;41.07
39363;BME280;25088;43.238;23.110;2023-07-08T07:17:18;96734.03;;;29.03;42.48
39363;BME280;25088;43.238;23.110;2023-07-08T07:19:44;96723.34;;;28.93;42.46
39363;BME280;25088;43.238;23.110;2023-07-08T07:22:10;96707.66;;;28.33;43.56
39363;BME280;25088;43.238;23.110;2023-07-08T07:24:35;96720.03;;;28.32;43.98
39363;BME280;25088;43.238;23.110;2023-07-08T07:27:01;96738.13;;;28.16;44.69
39363;BME280;25088;43.238;23.110;2023-07-08T07:29:26;96738.72;;;28.41;43.51
39363;BME280;25088;43.238;23.110;2023-07-08T07:31:52;96731.72;;;28.70;42.93
39363;BME280;25088;43.238;23.110;2023-07-08T07:34:17;96734.91;;;29.26;43.70
39363;BME280;25088;43.238;23.110;2023-07-08T07:36:43;96735.09;;;28.95;43.28
39363;BME280;25088;43.238;23.110;2023-07-08T07:39:08;96733.88;;;29.15;43.81
39363;BME280;25088;43.238;23.110;2023-07-08T07:41:34;96733.50;;;29.17;44.06
39363;BME280;25088;43.238;23.110;2023-07-08T07:44:05;96749.03;;;29.53;43.90
39363;BME280;25088;43.238;23.110;2023-07-08T07:46:31;96739.78;;;29.72;43.01
39363;BME280;25088;43.238;23.110;2023-07-08T07:48:56;96743.06;;;29.12;43.22
39363;BME280;25088;43.238;23.110;2023-07-08T07:51:22;96739.34;;;29.27;43.05
39363;BME280;25088;43.238;23.110;2023-07-08T07:53:47;96752.38;;;29.58;43.21
39363;BME280;25088;43.238;23.110;2023-07-08T07:56:13;96756.03;;;29.82;43.03
39363;BME280;25088;43.238;23.110;2023-07-08T07:58:38;96751.66;;;29.00;43.80
39363;BME280;25088;43.238;23.110;2023-07-08T08:01:03;96739.50;;;29.57;43.21
39363;BME280;25088;43.238;23.110;2023-07-08T08:03:30;96745.16;;;29.80;42.34
39363;BME280;25088;43.238;23.110;2023-07-08T08:05:55;96740.22;;;29.74;42.23
39363;BME280;25088;43.238;23.110;2023-07-08T08:08:20;96745.03;;;30.23;41.83
39363;BME280;25088;43.238;23.110;2023-07-08T08:10:47;96742.63;;;30.21;42.03
39363;BME280;25088;43.238;23.110;2023-07-08T08:19:56;96750.97;;;29.49;43.23
39363;BME280;25088;43.238;23.110;2023-07-08T08:22:21;96759.16;;;29.54;42.68
39363;BME280;25088;43.238;23.110;2023-07-08T08:24:47;96752.06;;;29.64;42.61
39363;BME280;25088;43.238;23.110;2023-07-08T08:27:12;96756.38;;;30.26;41.43
39363;BME280;25088;43.238;23.110;2023-07-08T08:29:37;96770.63;;;30.37;40.88
39363;BME280;25088;43.238;23.110;2023-07-08T08:32:03;96759.94;;;30.76;40.30
39363;BME280;25088;43.238;23.110;2023-07-08T08:34:29;96757.56;;;30.78;40.27
39363;BME280;25088;43.238;23.110;2023-07-08T08:36:54;96748.53;;;30.39;41.52
39363;BME280;25088;43.238;23.110;2023-07-08T08:39:21;96755.16;;;29.78;41.22
39363;BME280;25088;43.238;23.110;2023-07-08T08:41:49;96759.41;;;29.91;41.35
39363;BME280;25088;43.238;23.110;2023-07-08T08:44:19;96759.13;;;30.23;41.14
39363;BME280;25088;43.238;23.110;2023-07-08T08:47:10;96766.34;;;30.20;41.15
39363;BME280;25088;43.238;23.110;2023-07-08T08:50:16;96757.94;;;30.50;39.76
39363;BME280;25088;43.238;23.110;2023-07-08T08:52:36;96764.41;;;29.78;41.24
39363;BME280;25088;43.238;23.110;2023-07-08T08:55:11;96773.75;;;29.21;40.97
39363;BME280;25088;43.238;23.110;2023-07-08T09:00:25;96761.91;;;30.19;40.46
39363;BME280;25088;43.238;23.110;2023-07-08T09:03:02;96760.28;;;30.71;40.85
39363;BME280;25088;43.238;23.110;2023-07-08T09:05:29;96753.59;;;31.17;39.18
39363;BME280;25088;43.238;23.110;2023-07-08T09:08:20;96755.63;;;31.50;39.58
39363;BME280;25088;43.238;23.110;2023-07-08T09:11:01;96754.41;;;31.51;38.93
39363;BME280;25088;43.238;23.110;2023-07-08T09:13:35;96758.69;;;31.34;38.90
39363;BME280;25088;43.238;23.110;2023-07-08T09:16:15;96760.63;;;30.70;38.02
39363;BME280;25088;43.238;23.110;2023-07-08T09:19:05;96770.66;;;29.49;40.17
39363;BME280;25088;43.238;23.110;2023-07-08T09:24:29;96752.88;;;30.63;38.22
39363;BME280;25088;43.238;23.110;2023-07-08T09:26:57;96745.50;;;30.81;37.62
39363;BME280;25088;43.238;23.110;2023-07-08T09:29:25;96749.94;;;31.46;38.81
39363;BME280;25088;43.238;23.110;2023-07-08T09:31:50;96735.06;;;31.15;39.61
39363;BME280;25088;43.238;23.110;2023-07-08T09:34:21;96747.66;;;31.59;38.47
39363;BME280;25088;43.238;23.110;2023-07-08T09:36:49;96749.94;;;31.83;37.03
39363;BME280;25088;43.238;23.110;2023-07-08T09:39:18;96743.31;;;32.16;37.73
39363;BME280;25088;43.238;23.110;2023-07-08T09:41:45;96743.38;;;32.20;37.08
39363;BME280;25088;43.238;23.110;2023-07-08T09:44:26;96747.44;;;32.26;37.79
39363;BME280;25088;43.238;23.110;2023-07-08T09:46:54;96728.84;;;32.18;36.58
39363;BME280;25088;43.238;23.110;2023-07-08T09:51:54;96737.06;;;31.89;37.00
39363;BME280;25088;43.238;23.110;2023-07-08T09:54:21;96736.88;;;32.16;37.28
39363;BME280;25088;43.238;23.110;2023-07-08T09:59:46;96735.59;;;32.58;36.88
39363;BME280;25088;43.238;23.110;2023-07-08T10:05:06;96742.81;;;32.55;35.57
39363;BME280;25088;43.238;23.110;2023-07-08T10:07:35;96738.34;;;32.51;36.59
39363;BME280;25088;43.238;23.110;2023-07-08T10:10:06;96745.38;;;32.78;36.75
39363;BME280;25088;43.238;23.110;2023-07-08T10:12:35;96746.44;;;32.56;36.63
39363;BME280;25088;43.238;23.110;2023-07-08T10:15:17;96745.09;;;31.84;36.21
39363;BME280;25088;43.238;23.110;2023-07-08T10:17:45;96748.00;;;32.46;35.93
39363;BME280;25088;43.238;23.110;2023-07-08T10:20:12;96743.97;;;31.96;36.79
39363;BME280;25088;43.238;23.110;2023-07-08T10:29:16;96734.19;;;31.45;36.60
39363;BME280;25088;43.238;23.110;2023-07-08T10:31:39;96734.00;;;30.94;38.11
39363;BME280;25088;43.238;23.110;2023-07-08T10:45:15;96712.66;;;31.71;36.50
39363;BME280;25088;43.238;23.110;2023-07-08T10:55:47;96720.25;;;33.89;34.34
39363;BME280;25088;43.238;23.110;2023-07-08T10:58:35;96717.44;;;34.21;32.38
39363;BME280;25088;43.238;23.110;2023-07-08T11:06:53;96730.72;;;32.55;34.80
39363;BME280;25088;43.238;23.110;2023-07-08T11:09:30;96719.47;;;32.69;34.85
39363;BME280;25088;43.238;23.110;2023-07-08T11:12:04;96725.53;;;32.09;36.03
39363;BME280;25088;43.238;23.110;2023-07-08T11:14:46;96721.34;;;31.88;37.29
39363;BME280;25088;43.238;23.110;2023-07-08T11:17:37;96726.63;;;32.52;36.38
39363;BME280;25088;43.238;23.110;2023-07-08T11:20:22;96711.16;;;32.98;35.06
39363;BME280;25088;43.238;23.110;2023-07-08T11:22:54;96713.66;;;33.31;34.29
39363;BME280;25088;43.238;23.110;2023-07-08T11:25:24;96660.25;;;33.12;34.71
39363;BME280;25088;43.238;23.110;2023-07-08T11:27:55;96713.38;;;33.72;34.43
39363;BME280;25088;43.238;23.110;2023-07-08T11:30:23;96706.53;;;34.02;33.51
39363;BME280;25088;43.238;23.110;2023-07-08T11:32:59;96710.16;;;33.88;34.45
39363;BME280;25088;43.238;23.110;2023-07-08T11:35:48;96717.44;;;34.32;34.54
39363;BME280;25088;43.238;23.110;2023-07-08T11:38:16;96698.81;;;34.49;33.85
39363;BME280;25088;43.238;23.110;2023-07-08T11:46:27;96707.19;;;34.81;32.78
39363;BME280;25088;43.238;23.110;2023-07-08T11:49:01;96719.47;;;34.28;32.52
39363;BME280;25088;43.238;23.110;2023-07-08T11:51:30;96705.72;;;33.94;33.28
39363;BME280;25088;43.238;23.110;2023-07-08T11:54:11;96717.38;;;33.50;33.67
39363;BME280;25088;43.238;23.110;2023-07-08T11:59:26;96721.47;;;34.20;33.24
39363;BME280;25088;43.238;23.110;2023-07-08T12:02:09;96719.72;;;33.19;34.81
39363;BME280;25088;43.238;23.110;2023-07-08T12:04:59;96711.75;;;33.67;34.12
39363;BME280;25088;43.238;23.110;2023-07-08T12:07:41;96711.72;;;31.97;36.05
39363;BME280;25088;43.238;23.110;2023-07-08T12:10:15;96714.09;;;31.91;35.69
39363;BME280;25088;43.238;23.110;2023-07-08T12:12:43;96709.38;;;32.72;35.72
39363;BME280;25088;43.238;23.110;2023-07-08T12:15:26;96702.84;;;33.69;34.63
39363;BME280;25088;43.238;23.110;2023-07-08T12:17:55;96707.41;;;32.79;34.53
39363;BME280;25088;43.238;23.110;2023-07-08T12:20:31;96697.28;;;32.09;35.61
39363;BME280;25088;43.238;23.110;2023-07-08T12:22:57;96699.84;;;32.28;35.81
39363;BME280;25088;43.238;23.110;2023-07-08T12:25:29;96691.34;;;33.01;35.08
39363;BME280;25088;43.238;23.110;2023-07-08T12:27:56;96672.03;;;33.32;35.28
39363;BME280;25088;43.238;23.110;2023-07-08T12:30:22;96662.16;;;32.06;35.36
39363;BME280;25088;43.238;23.110;2023-07-08T12:32:48;96688.13;;;32.99;34.59
39363;BME280;25088;43.238;23.110;2023-07-08T12:35:23;96685.50;;;32.58;36.01
39363;BME280;25088;43.238;23.110;2023-07-08T12:37:58;96677.31;;;33.40;35.01
39363;BME280;25088;43.238;23.110;2023-07-08T12:40:26;96674.56;;;33.87;34.16
39363;BME280;25088;43.238;23.110;2023-07-08T12:42:52;96676.06;;;33.31;33.70
39363;BME280;25088;43.238;23.110;2023-07-08T12:45:22;96681.44;;;34.07;32.81
39363;BME280;25088;43.238;23.110;2023-07-08T12:47:49;96680.19;;;34.37;32.63
39363;BME280;25088;43.238;23.110;2023-07-08T12:50:15;96684.22;;;34.39;32.75
39363;BME280;25088;43.238;23.110;2023-07-08T12:52:44;96682.22;;;34.36;33.10
39363;BME280;25088;43.238;23.110;2023-07-08T12:55:10;96680.63;;;34.14;33.52
39363;BME280;25088;43.238;23.110;2023-07-08T12:57:37;96682.63;;;34.06;33.20
39363;BME280;25088;43.238;23.110;2023-07-08T13:00:04;96685.03;;;33.54;34.54
39363;BME280;25088;43.238;23.110;2023-07-08T13:02:31;96678.13;;;33.37;34.69
39363;BME280;25088;43.238;23.110;2023-07-08T13:04:59;96680.34;;;32.82;35.92
39363;BME280;25088;43.238;23.110;2023-07-08T13:07:40;96685.34;;;32.33;35.32
39363;BME280;25088;43.238;23.110;2023-07-08T13:10:15;96676.25;;;32.72;35.93
39363;BME280;25088;43.238;23.110;2023-07-08T13:12:41;96667.81;;;32.76;35.10
39363;BME280;25088;43.238;23.110;2023-07-08T13:15:16;96680.22;;;32.57;35.65
39363;BME280;25088;43.238;23.110;2023-07-08T13:17:43;96671.63;;;32.35;35.90
39363;BME280;25088;43.238;23.110;2023-07-08T13:20:14;96683.88;;;32.54;36.82
39363;BME280;25088;43.238;23.110;2023-07-08T13:22:41;96675.72;;;32.38;36.43
39363;BME280;25088;43.238;23.110;2023-07-08T13:25:19;96677.13;;;32.80;36.82
39363;BME280;25088;43.238;23.110;2023-07-08T13:28:14;96672.25;;;32.73;35.79
39363;BME280;25088;43.238;23.110;2023-07-08T13:31:12;96680.88;;;32.32;36.69
39363;BME280;25088;43.238;23.110;2023-07-08T13:33:37;96675.16;;;32.18;40.11
39363;BME280;25088;43.238;23.110;2023-07-08T13:36:05;96678.81;;;32.26;37.53
39363;BME280;25088;43.238;23.110;2023-07-08T13:38:35;96683.50;;;32.62;36.52
39363;BME280;25088;43.238;23.110;2023-07-08T13:41:05;96670.41;;;33.24;35.69
39363;BME280;25088;43.238;23.110;2023-07-08T13:43:37;96674.16;;;34.03;34.48
39363;BME280;25088;43.238;23.110;2023-07-08T13:46:04;96679.38;;;34.47;34.02
39363;BME280;25088;43.238;23.110;2023-07-08T13:48:41;96676.94;;;34.53;34.04
39363;BME280;25088;43.238;23.110;2023-07-08T13:51:16;96682.63;;;33.78;34.93
39363;BME280;25088;43.238;23.110;2023-07-08T13:53:49;96688.69;;;33.80;35.18
39363;BME280;25088;43.238;23.110;2023-07-08T13:56:21;96689.88;;;33.43;35.84
39363;BME280;25088;43.238;23.110;2023-07-08T13:58:49;96696.09;;;32.79;36.39